Time;durP1;ratioP1;P1;durP2;ratioP2;P2;SDS_P1;SDS_P2;PMS_P1;PMS_P2;Temp;Humidity;BMP_temperature;BMP_pressure;BME280_temperature;BME280_humidity;BME280_pressure;Samples;Min_cycle;Max_cycle;Signal;HPM_P1;HPM_P2
2024/01/16 00:01:06;;;;;;;4.15;2.35;;;;;;;3.61;63.87;100857.56;4907517;28;123116;-75
2024/01/16 00:03:33;;;;;;;6.00;2.30;;;;;;;3.60;63.98;100852.34;4941575;28;124398;-75
2024/01/16 00:06:02;;;;;;;5.03;2.55;;;;;;;3.61;63.72;100854.09;4929810;28;114207;-74
2024/01/16 00:08:38;;;;;;;3.58;1.90;;;;;;;3.60;63.72;100853.22;4905240;28;113145;-75
2024/01/16 00:11:10;;;;;;;6.18;2.22;;;;;;;3.60;63.73;100853.22;4910664;28;123970;-74
2024/01/16 00:13:45;;;;;;;6.35;2.72;;;;;;;3.59;63.75;100846.25;5047554;23;123447;-69
2024/01/16 00:16:12;;;;;;;3.95;2.17;;;;;;;3.59;63.65;100841.00;4910755;28;114751;-68
2024/01/16 00:18:39;;;;;;;7.20;1.90;;;;;;;3.57;63.61;100848.03;4922890;28;113988;-68
2024/01/16 00:21:07;;;;;;;4.38;1.63;;;;;;;3.56;63.91;100846.31;4904146;28;124565;-68
2024/01/16 00:23:35;;;;;;;2.42;1.48;;;;;;;3.56;63.62;100850.66;4904429;28;124023;-68
2024/01/16 00:26:02;;;;;;;5.78;1.60;;;;;;;3.55;63.87;100859.44;4882242;28;113516;-68
2024/01/16 00:28:32;;;;;;;4.60;2.10;;;;;;;3.54;63.63;100855.94;4910046;28;113963;-68
2024/01/16 00:30:59;;;;;;;5.22;1.85;;;;;;;3.53;63.86;100862.06;4882672;28;124396;-68
2024/01/16 00:33:27;;;;;;;4.53;1.90;;;;;;;3.53;63.79;100862.06;4910575;28;123829;-68
2024/01/16 00:35:55;;;;;;;5.05;1.88;;;;;;;3.54;63.80;100861.16;4909848;28;115270;-69
2024/01/16 00:38:22;;;;;;;6.25;2.22;;;;;;;3.55;63.93;100855.06;4910413;28;114984;-68
2024/01/16 00:40:50;;;;;;;2.90;1.85;;;;;;;3.54;63.68;100853.31;4910516;28;123935;-69
2024/01/16 00:43:18;;;;;;;3.53;2.20;;;;;;;3.54;63.71;100862.94;4910154;28;123867;-68
2024/01/16 00:45:46;;;;;;;3.60;2.00;;;;;;;3.54;63.77;100861.16;4912070;28;114544;-68
2024/01/16 00:48:13;;;;;;;4.32;2.00;;;;;;;3.54;64.06;100865.53;4899284;28;113347;-68
2024/01/16 00:50:41;;;;;;;3.83;2.05;;;;;;;3.54;63.98;100869.03;4889604;28;123724;-68
2024/01/16 00:53:08;;;;;;;5.57;2.00;;;;;;;3.54;63.61;100869.03;4891368;28;123055;-68
2024/01/16 00:55:36;;;;;;;6.03;2.10;;;;;;;3.52;63.87;100865.56;4908605;28;113896;-68
2024/01/16 00:58:04;;;;;;;3.95;2.00;;;;;;;3.52;64.04;100860.31;4912319;28;113554;-68
2024/01/16 01:00:33;;;;;;;3.10;1.63;;;;;;;3.53;63.64;100872.53;4897753;28;123058;-68
2024/01/16 01:03:03;;;;;;;6.05;1.70;;;;;;;3.52;63.80;100870.81;4907107;28;123863;-68
2024/01/16 01:05:30;;;;;;;3.17;1.77;;;;;;;3.52;64.08;100870.81;4913013;28;114410;-68
2024/01/16 01:07:58;;;;;;;2.80;1.65;;;;;;;3.53;64.04;100877.78;4913845;28;114362;-69
2024/01/16 01:10:25;;;;;;;2.42;1.35;;;;;;;3.54;64.08;100878.63;4896777;28;124731;-68
2024/01/16 01:12:53;;;;;;;3.08;1.42;;;;;;;3.55;64.00;100881.25;4880686;28;122816;-68
2024/01/16 01:15:21;;;;;;;2.83;1.65;;;;;;;3.56;63.66;100877.75;4908951;28;114389;-68
2024/01/16 01:17:49;;;;;;;3.83;1.50;;;;;;;3.57;64.00;100879.47;4918448;28;114283;-68
2024/01/16 01:20:18;;;;;;;3.85;1.65;;;;;;;3.58;64.09;100875.97;4917830;28;124383;-68
2024/01/16 01:22:46;;;;;;;2.90;1.48;;;;;;;3.59;63.93;100888.16;4910709;28;123661;-68
2024/01/16 01:25:14;;;;;;;3.45;1.50;;;;;;;3.59;63.90;100888.16;4913868;28;115180;-68
2024/01/16 01:27:41;;;;;;;5.28;1.90;;;;;;;3.60;64.24;100874.19;4898362;28;114404;-68
2024/01/16 01:30:10;;;;;;;3.42;1.98;;;;;;;3.61;63.99;100886.38;4898008;28;123209;-69
2024/01/16 01:32:38;;;;;;;4.38;1.70;;;;;;;3.63;63.84;100879.34;4913147;28;124509;-68
2024/01/16 01:35:06;;;;;;;2.30;1.50;;;;;;;3.64;64.12;100883.72;4913360;28;114669;-68
2024/01/16 01:37:33;;;;;;;4.93;1.73;;;;;;;3.67;63.88;100886.28;4901227;28;113996;-68
2024/01/16 01:40:01;;;;;;;4.20;1.52;;;;;;;3.68;64.18;100881.91;4909032;28;123893;-68
2024/01/16 01:42:41;;;;;;;3.53;1.30;;;;;;;3.69;63.93;100879.28;4914303;28;123977;-72
2024/01/16 01:45:27;;;;;;;2.95;1.42;;;;;;;3.69;63.74;100879.28;4909396;28;115128;-69
2024/01/16 01:47:56;;;;;;;3.72;1.45;;;;;;;3.70;64.01;100881.00;4897049;28;113687;-69
2024/01/16 01:50:23;;;;;;;2.80;1.55;;;;;;;3.70;63.86;100891.47;4913546;28;123965;-69
2024/01/16 01:52:52;;;;;;;3.53;1.50;;;;;;;3.73;64.14;100881.81;4912584;28;123960;-69
2024/01/16 01:55:19;;;;;;;1.90;1.30;;;;;;;3.75;64.26;100887.91;4912991;28;114873;-69
2024/01/16 01:58:41;;;;;;;3.08;1.58;;;;;;;3.75;63.90;100883.56;4913990;28;113941;-71
2024/01/16 02:01:54;;;;;;;3.63;1.70;;;;;;;3.75;63.97;100882.66;4905790;28;124190;-69
2024/01/16 02:04:24;;;;;;;3.15;1.58;;;;;;;3.75;64.01;100882.66;4880830;28;123501;-69
2024/01/16 02:06:53;;;;;;;3.58;1.58;;;;;;;3.73;63.98;100885.34;4897593;28;114710;-69
2024/01/16 02:09:20;;;;;;;5.85;1.85;;;;;;;3.74;64.25;100891.44;4896602;28;113319;-69
2024/01/16 02:11:47;;;;;;;6.93;2.08;;;;;;;3.74;63.96;100891.44;4887541;28;123749;-69
2024/01/16 02:14:15;;;;;;;4.40;1.77;;;;;;;3.75;63.90;100887.91;4911740;28;124780;-69
2024/01/16 02:16:44;;;;;;;7.40;1.80;;;;;;;3.75;64.08;100893.13;4891969;28;115000;-69
2024/01/16 02:19:12;;;;;;;3.47;1.85;;;;;;;3.76;64.02;100894.88;4895736;28;114011;-69
2024/01/16 02:21:49;;;;;;;4.30;1.95;;;;;;;3.76;63.98;100897.50;4909480;28;125480;-69
2024/01/16 02:24:18;;;;;;;6.30;1.75;;;;;;;3.77;64.24;100891.34;4912102;28;123764;-69
2024/01/16 02:26:46;;;;;;;6.93;2.13;;;;;;;3.77;64.02;100892.25;4913116;28;114697;-69
2024/01/16 02:29:16;;;;;;;9.00;2.05;;;;;;;3.79;64.10;100894.84;4912901;28;113256;-69
2024/01/16 02:31:43;;;;;;;5.90;2.33;;;;;;;3.81;64.24;100895.69;4890377;28;124655;-69
2024/01/16 02:34:10;;;;;;;3.88;1.98;;;;;;;3.81;63.90;100893.91;4913846;28;123951;-69
2024/01/16 02:36:38;;;;;;;4.07;1.90;;;;;;;3.82;64.10;100897.41;4914203;28;114547;-69
2024/01/16 02:39:06;;;;;;;9.40;2.50;;;;;;;3.84;64.11;100893.00;4911833;28;114126;-69
2024/01/16 02:41:34;;;;;;;6.35;1.70;;;;;;;3.84;63.93;100908.72;4911096;28;124181;-69
2024/01/16 02:44:01;;;;;;;5.18;2.25;;;;;;;3.85;64.18;100910.47;4911704;28;124012;-69
2024/01/16 02:46:28;;;;;;;4.80;2.42;;;;;;;3.87;64.20;100903.44;4911663;28;114007;-69
2024/01/16 02:48:56;;;;;;;2.80;1.98;;;;;;;3.87;63.88;100898.19;4896042;28;113494;-69
2024/01/16 02:51:23;;;;;;;4.78;2.40;;;;;;;3.87;63.90;100909.53;4910359;28;124541;-69
2024/01/16 02:53:50;;;;;;;5.05;1.67;;;;;;;3.88;64.11;100907.78;4912725;28;123579;-69
2024/01/16 02:56:18;;;;;;;3.63;2.17;;;;;;;3.88;63.93;100905.16;4912401;28;114676;-69
2024/01/16 02:58:45;;;;;;;4.78;1.80;;;;;;;3.89;64.18;100906.91;4911510;28;114022;-69
2024/01/16 03:01:14;;;;;;;4.07;1.75;;;;;;;3.89;64.23;100918.22;4911024;28;124085;-69
2024/01/16 03:03:41;;;;;;;8.57;1.88;;;;;;;3.91;64.14;100920.84;4912670;28;124080;-69
2024/01/16 03:06:09;;;;;;;2.88;1.50;;;;;;;3.91;63.87;100915.59;4891247;28;114448;-69
2024/01/16 03:08:36;;;;;;;3.63;1.23;;;;;;;3.91;63.88;100910.34;4911732;28;115163;-69
2024/01/16 03:11:04;;;;;;;3.00;1.42;;;;;;;3.92;63.94;100922.56;4912040;28;123618;-69
2024/01/16 03:13:31;;;;;;;3.72;1.48;;;;;;;3.93;63.97;100919.06;4911948;28;123817;-69
2024/01/16 03:16:06;;;;;;;2.83;1.40;;;;;;;3.95;64.11;100917.25;4913365;28;114611;-69
2024/01/16 03:18:34;;;;;;;;;;;;;;;3.96;64.17;100924.25;4911448;28;114388;-69
2024/01/16 03:21:01;;;;;;;3.80;1.20;;;;;;;3.96;63.96;100921.63;4899485;28;124631;-69
2024/01/16 03:23:29;;;;;;;4.00;1.30;;;;;;;3.97;64.23;100923.34;4909002;28;124743;-69
2024/01/16 03:25:58;;;;;;;3.78;0.95;;;;;;;3.98;64.05;100927.72;4882541;28;113323;-74
2024/01/16 03:28:25;;;;;;;2.78;1.30;;;;;;;3.99;63.99;100924.19;4901367;28;113989;-75
2024/01/16 03:30:53;;;;;;;3.88;1.05;;;;;;;4.01;64.01;100921.53;4897515;28;124112;-75
2024/01/16 03:33:21;;;;;;;3.08;1.00;;;;;;;4.02;64.12;100913.66;4915455;28;123602;-75
2024/01/16 03:35:51;;;;;;;2.65;0.80;;;;;;;4.05;64.10;100917.97;4900272;28;114137;-76
2024/01/16 03:38:18;;;;;;;1.80;1.00;;;;;;;4.07;63.88;100917.06;4916812;28;113827;-76
2024/01/16 03:40:46;;;;;;;2.80;1.48;;;;;;;4.08;64.28;100903.06;4906150;28;124137;-76
2024/01/16 03:43:14;;;;;;;4.75;1.70;;;;;;;4.08;64.28;100903.06;4894948;28;123353;-75
2024/01/16 03:45:41;;;;;;;3.58;1.60;;;;;;;4.10;64.27;100903.91;4899526;28;113560;-75
2024/01/16 03:48:08;;;;;;;3.92;1.83;;;;;;;4.12;64.38;100908.25;4916048;28;114045;-76
2024/01/16 03:50:36;;;;;;;4.53;1.63;;;;;;;4.12;64.25;100897.78;4913852;28;123226;-75
2024/01/16 03:53:06;;;;;;;4.82;1.60;;;;;;;4.13;63.98;100903.00;4895443;28;122693;-76
2024/01/16 03:55:33;;;;;;;4.25;2.03;;;;;;;4.12;64.19;100903.88;4897073;28;115316;-75
2024/01/16 03:58:01;;;;;;;6.47;1.70;;;;;;;4.12;64.17;100892.53;4913280;28;114737;-76
2024/01/16 04:00:28;;;;;;;6.13;1.73;;;;;;;4.10;64.04;100890.78;4915375;28;123979;-76
2024/01/16 04:02:55;;;;;;;4.32;1.40;;;;;;;4.09;64.02;100889.06;4914448;28;124574;-76
2024/01/16 04:05:24;;;;;;;2.22;1.30;;;;;;;4.07;64.17;100885.63;4891660;28;114355;-75
2024/01/16 04:07:52;;;;;;;4.05;1.30;;;;;;;4.07;64.23;100884.78;4896168;28;113263;-76
2024/01/16 04:10:20;;;;;;;1.60;1.00;;;;;;;4.05;64.12;100887.41;4916034;28;124252;-77
2024/01/16 04:12:47;;;;;;;2.90;0.80;;;;;;;4.04;64.18;100880.41;4913744;28;123822;-75
2024/01/16 04:15:15;;;;;;;3.80;1.15;;;;;;;4.02;63.75;100876.97;4891941;28;113506;-75
2024/01/16 04:17:43;;;;;;;2.42;0.98;;;;;;;4.01;63.83;100875.25;4904080;28;114987;-75
2024/01/16 04:20:11;;;;;;;2.25;0.90;;;;;;;4.00;64.03;100873.50;4915137;28;124388;-76
2024/01/16 04:22:38;;;;;;;3.15;1.08;;;;;;;3.99;64.02;100877.00;4893529;28;123887;-76
2024/01/16 04:25:06;;;;;;;2.45;0.80;;;;;;;3.97;64.05;100872.69;4907834;28;115205;-76
2024/01/16 04:27:33;;;;;;;4.55;0.85;;;;;;;3.95;64.04;100882.34;4913031;28;114496;-75
2024/01/16 04:30:01;;;;;;;2.45;0.90;;;;;;;3.95;63.76;100880.59;4914950;28;123926;-75
2024/01/16 04:32:28;;;;;;;1.27;0.85;;;;;;;3.95;63.83;100879.72;4913891;28;124712;-76
2024/01/16 04:34:55;;;;;;;3.63;0.93;;;;;;;3.94;64.04;100878.88;4901970;28;114726;-76
2024/01/16 04:37:23;;;;;;;1.88;0.80;;;;;;;3.94;64.17;100878.88;4919379;28;113908;-75
2024/01/16 04:39:51;;;;;;;2.28;0.95;;;;;;;3.92;63.95;100880.66;4912462;28;124809;-76
2024/01/16 04:42:19;;;;;;;3.70;1.10;;;;;;;3.91;63.96;100878.91;4899605;28;124317;-75
2024/01/16 04:44:46;;;;;;;5.03;1.30;;;;;;;3.92;64.00;100885.91;4910130;28;115246;-75
2024/01/16 04:47:16;;;;;;;3.80;1.30;;;;;;;3.92;63.89;100879.75;4901864;28;115596;-75
2024/01/16 04:49:44;;;;;;;5.60;1.52;;;;;;;3.92;63.86;100880.66;4901114;28;123013;-75
2024/01/16 04:52:11;;;;;;;4.72;1.48;;;;;;;3.93;63.91;100892.00;4894116;28;123746;-75
2024/01/16 04:54:38;;;;;;;4.43;1.77;;;;;;;3.95;63.74;100890.22;4916519;28;114210;-75
2024/01/16 04:57:06;;;;;;;6.40;1.80;;;;;;;3.95;63.95;100885.81;4915919;28;113871;-76
2024/01/16 04:59:33;;;;;;;5.70;2.17;;;;;;;3.96;64.33;100879.72;4904374;28;124076;-75
2024/01/16 05:02:00;;;;;;;9.98;2.58;;;;;;;3.98;63.80;100882.31;4895900;28;122985;-75
2024/01/16 05:04:28;;;;;;;5.82;2.20;;;;;;;3.99;64.17;100887.50;4914430;28;114508;-75
2024/01/16 05:06:55;;;;;;;6.55;2.25;;;;;;;4.01;63.93;100887.47;4914669;28;114298;-75
2024/01/16 05:09:22;;;;;;;5.97;2.20;;;;;;;4.02;64.14;100886.59;4896924;28;124332;-75
2024/01/16 05:11:50;;;;;;;5.05;2.60;;;;;;;4.04;63.79;100885.66;4898655;28;123116;-76
2024/01/16 05:14:17;;;;;;;6.72;2.65;;;;;;;4.06;63.91;100889.13;4914621;28;114210;-75
2024/01/16 05:16:44;;;;;;;6.28;3.00;;;;;;;4.06;64.15;100878.63;4899523;28;113602;-75
2024/01/16 05:19:12;;;;;;;6.75;3.10;;;;;;;4.06;63.90;100873.41;4908197;28;123922;-75
2024/01/16 05:21:40;;;;;;;10.15;3.83;;;;;;;4.08;63.79;100862.91;4912665;28;124825;-75
2024/01/16 05:24:08;;;;;;;7.75;3.20;;;;;;;4.06;63.85;100857.66;4880385;28;113836;-76
2024/01/16 05:26:35;;;;;;;6.85;2.97;;;;;;;4.08;63.99;100855.88;4905282;28;113724;-75
2024/01/16 05:29:02;;;;;;;11.13;3.60;;;;;;;4.10;64.18;100854.09;4895811;28;123405;-76
2024/01/16 05:31:30;;;;;;;11.82;3.55;;;;;;;4.12;63.75;100850.59;4900207;28;123850;-76
2024/01/16 05:33:58;;;;;;;7.75;3.63;;;;;;;4.12;64.04;100840.13;4915344;23;115824;-76
2024/01/16 05:36:26;;;;;;;8.55;3.90;;;;;;;4.12;63.94;100845.34;4894452;28;114922;-76
2024/01/16 05:38:54;;;;;;;9.43;3.75;;;;;;;4.13;63.74;100847.09;4882396;28;123980;-76
2024/01/16 05:41:22;;;;;;;8.63;3.75;;;;;;;4.14;63.83;100843.56;4865004;28;121976;-76
2024/01/16 05:43:51;;;;;;;9.48;3.65;;;;;;;4.14;64.05;100848.81;4884051;28;113647;-77
2024/01/16 05:46:21;;;;;;;10.32;4.05;;;;;;;4.15;64.02;100837.44;4892138;28;112978;-75
2024/01/16 05:48:50;;;;;;;10.98;4.00;;;;;;;4.14;63.89;100843.56;4881210;28;123400;-74
2024/01/16 05:51:19;;;;;;;10.38;4.60;;;;;;;4.13;64.16;100841.88;4877639;28;123086;-75
2024/01/16 05:53:48;;;;;;;10.15;4.28;;;;;;;4.14;64.38;100838.31;4880121;28;113514;-74
2024/01/16 05:56:16;;;;;;;9.60;4.63;;;;;;;4.13;63.80;100836.63;4860226;28;112934;-74
2024/01/16 05:58:44;;;;;;;9.45;4.20;;;;;;;4.12;63.92;100829.63;4863674;28;123240;-74
2024/01/16 06:01:13;;;;;;;10.77;3.75;;;;;;;4.13;63.99;100836.63;4894247;28;123951;-74
2024/01/16 06:03:43;;;;;;;9.25;4.53;;;;;;;4.12;63.98;100840.13;4890003;28;114385;-74
2024/01/16 06:06:11;;;;;;;8.52;3.90;;;;;;;4.13;64.05;100834.00;4879403;28;114521;-74
2024/01/16 06:08:40;;;;;;;8.65;3.75;;;;;;;4.13;63.90;100831.38;4880103;28;123098;-74
2024/01/16 06:11:07;;;;;;;9.00;4.07;;;;;;;4.13;64.04;100831.38;4895126;28;123529;-74
2024/01/16 06:13:35;;;;;;;9.48;3.88;;;;;;;4.12;63.86;100834.88;4880721;28;113914;-74
2024/01/16 06:16:03;;;;;;;7.85;3.85;;;;;;;4.10;63.64;100833.13;4881106;28;113034;-75
2024/01/16 06:18:30;;;;;;;10.82;4.00;;;;;;;4.10;63.81;100838.38;4896165;28;124750;-75
2024/01/16 06:20:57;;;;;;;11.25;4.30;;;;;;;4.10;63.63;100843.63;4893512;28;124239;-74
2024/01/16 06:23:26;;;;;;;10.55;4.07;;;;;;;4.10;63.74;100838.38;4895330;28;115340;-74
2024/01/16 06:25:53;;;;;;;9.00;3.92;;;;;;;4.09;63.79;100836.66;4881055;28;115820;-75
2024/01/16 06:28:22;;;;;;;11.10;4.35;;;;;;;4.08;63.85;100832.28;4879751;28;123493;-74
2024/01/16 06:30:49;;;;;;;7.80;4.13;;;;;;;4.08;63.88;100834.91;4889539;28;124960;-75
2024/01/16 06:33:16;;;;;;;9.50;4.25;;;;;;;4.08;63.66;100837.53;4888609;28;114546;-74
2024/01/16 06:35:44;;;;;;;11.52;4.30;;;;;;;4.09;63.84;100835.81;4894290;28;114125;-74
2024/01/16 06:38:11;;;;;;;10.45;3.85;;;;;;;4.07;63.96;100835.84;4895576;28;124558;-74
2024/01/16 06:40:39;;;;;;;11.75;4.45;;;;;;;4.07;63.87;100837.59;4883117;28;123896;-75
2024/01/16 06:43:07;;;;;;;7.15;3.90;;;;;;;4.06;63.75;100836.72;4879288;28;113004;-75
2024/01/16 06:45:34;;;;;;;10.18;4.38;;;;;;;4.05;63.82;100835.00;4878250;28;114560;-75
2024/01/16 06:48:03;;;;;;;10.45;3.42;;;;;;;4.04;64.16;100835.88;4894402;28;124354;-75
2024/01/16 06:50:31;;;;;;;8.18;4.18;;;;;;;4.03;63.74;100836.78;4893588;28;124009;-74
2024/01/16 06:52:58;;;;;;;7.60;3.35;;;;;;;4.01;63.53;100838.56;4880182;28;114069;-75
2024/01/16 06:55:26;;;;;;;14.05;3.83;;;;;;;4.00;63.92;100834.22;4929363;23;112781;-78
2024/01/16 06:57:56;;;;;;;8.55;3.58;;;;;;;3.99;63.73;100835.09;4940003;28;123657;-79
2024/01/16 07:00:25;;;;;;;5.78;3.17;;;;;;;3.99;63.89;100845.56;4956129;28;124528;-79
2024/01/16 07:02:54;;;;;;;9.23;3.72;;;;;;;3.98;63.63;100838.63;4949449;28;114967;-79
2024/01/16 07:05:21;;;;;;;8.07;3.13;;;;;;;3.96;63.57;100840.41;4948640;28;114580;-79
2024/01/16 07:07:49;;;;;;;9.75;3.58;;;;;;;3.98;63.74;100854.34;4938541;28;125395;-78
2024/01/16 07:10:22;;;;;;;8.15;3.42;;;;;;;3.96;63.48;100839.53;4933926;28;124549;-79
2024/01/16 07:12:51;;;;;;;9.05;3.20;;;;;;;3.94;63.63;100847.44;4935411;28;117116;-79
2024/01/16 07:15:24;;;;;;;6.35;3.17;;;;;;;3.93;63.46;100845.69;4943126;28;115172;-86
2024/01/16 07:18:04;;;;;;;7.47;2.93;;;;;;;3.91;63.62;100852.72;4916387;28;98193;-69
2024/01/16 07:20:31;;;;;;;7.68;2.85;;;;;;;3.89;63.53;100854.50;4920438;28;123398;-69
2024/01/16 07:22:59;;;;;;;5.60;2.60;;;;;;;3.88;63.46;100863.22;4935363;28;114466;-70
2024/01/16 07:25:27;;;;;;;5.95;3.00;;;;;;;3.84;63.67;100861.56;4941151;28;113934;-70
2024/01/16 07:27:54;;;;;;;7.63;2.67;;;;;;;3.84;63.62;100861.56;4939209;28;124322;-69
2024/01/16 07:30:21;;;;;;;6.38;2.63;;;;;;;3.81;63.70;100866.88;4931958;28;123450;-70
2024/01/16 07:32:50;;;;;;;8.05;2.60;;;;;;;3.81;63.73;100861.63;4957062;28;114550;-69
2024/01/16 07:35:17;;;;;;;4.55;2.17;;;;;;;3.79;63.67;100860.78;4936510;28;114438;-68
2024/01/16 07:37:45;;;;;;;9.23;2.78;;;;;;;3.76;63.65;100866.06;4945906;28;124417;-69
2024/01/16 07:40:12;;;;;;;8.35;2.67;;;;;;;3.73;63.34;100860.88;4939399;28;124213;-68
2024/01/16 07:42:39;;;;;;;7.93;2.55;;;;;;;3.72;63.73;100859.16;4941772;28;114275;-69
2024/01/16 07:45:07;;;;;;;4.28;2.42;;;;;;;3.69;63.41;100858.31;4945110;28;114619;-68
2024/01/16 07:47:36;;;;;;;7.93;2.35;;;;;;;3.68;63.55;100867.06;4933231;28;124431;-69
2024/01/16 07:50:03;;;;;;;5.60;2.45;;;;;;;3.66;63.62;100868.84;4948687;28;123863;-69
2024/01/16 07:52:34;;;;;;;5.60;2.33;;;;;;;3.66;63.70;100868.84;4925110;28;113971;-70
2024/01/16 07:55:03;;;;;;;10.05;2.70;;;;;;;3.66;63.29;100867.97;4940056;28;112314;-70
2024/01/16 07:57:30;;;;;;;7.72;2.50;;;;;;;3.65;63.30;100867.09;4925138;28;123827;-70
2024/01/16 08:00:23;;;;;;;5.93;2.50;;;;;;;3.63;63.37;100871.50;4946871;28;123383;-75
2024/01/16 08:03:16;;;;;;;6.40;2.28;;;;;;;3.62;63.63;100877.63;4932223;28;115285;-75
2024/01/16 08:05:44;;;;;;;7.30;2.08;;;;;;;3.60;63.46;100874.19;4943352;28;115380;-76
2024/01/16 08:08:12;;;;;;;6.90;2.20;;;;;;;3.59;63.57;100876.81;4943135;28;124207;-77
2024/01/16 08:10:42;;;;;;;7.07;1.90;;;;;;;3.59;63.61;100882.06;4915204;28;122457;-75
2024/01/16 08:13:10;;;;;;;7.28;2.20;;;;;;;3.59;63.55;100877.69;4945333;28;114255;-75
2024/01/16 08:15:37;;;;;;;7.57;2.42;;;;;;;3.58;63.25;100880.31;4935768;28;112919;-75
2024/01/16 08:18:05;;;;;;;4.70;2.35;;;;;;;3.58;63.36;100881.19;4944196;28;123810;-75
2024/01/16 08:20:32;;;;;;;5.00;2.20;;;;;;;3.60;63.58;100881.16;4926025;28;124214;-74
2024/01/16 08:22:59;;;;;;;6.05;2.13;;;;;;;3.59;63.54;100892.53;4941327;28;114016;-76
2024/01/16 08:25:26;;;;;;;6.90;2.15;;;;;;;3.60;63.74;100887.28;4949836;28;113953;-76
2024/01/16 08:27:54;;;;;;;3.75;2.05;;;;;;;3.61;63.62;100885.50;4937079;28;124443;-76
2024/01/16 08:30:21;;;;;;;7.22;2.40;;;;;;;3.61;63.28;100886.38;4938796;28;124216;-75
2024/01/16 08:32:50;;;;;;;10.45;2.10;;;;;;;3.59;63.38;100882.91;4946357;28;114441;-75
2024/01/16 08:35:17;;;;;;;9.35;2.42;;;;;;;3.61;63.45;100881.13;4932843;28;113004;-75
2024/01/16 08:37:47;;;;;;;4.70;1.90;;;;;;;3.62;63.46;100882.03;4945984;28;123805;-76
2024/01/16 08:40:14;;;;;;;6.38;2.28;;;;;;;3.63;63.29;100888.97;4937985;28;123634;-75
2024/01/16 08:42:42;;;;;;;5.80;2.28;;;;;;;3.63;63.37;100884.59;4942659;28;114058;-76
2024/01/16 08:45:09;;;;;;;6.53;2.05;;;;;;;3.65;63.29;100887.19;4931330;28;113010;-75
2024/01/16 08:47:38;;;;;;;5.88;2.20;;;;;;;3.66;63.06;100889.78;4925249;28;123039;-76
2024/01/16 08:50:06;;;;;;;6.55;2.20;;;;;;;3.67;63.10;100896.78;4953660;28;123964;-75
2024/01/16 08:52:35;;;;;;;3.33;1.80;;;;;;;3.68;63.14;100893.25;4932361;28;114550;-76
2024/01/16 08:55:03;;;;;;;8.52;2.45;;;;;;;3.69;63.40;100884.50;4932187;28;113844;-76
2024/01/16 08:57:31;;;;;;;5.30;2.65;;;;;;;3.69;63.30;100881.91;4936134;28;123883;-76
2024/01/16 08:59:58;;;;;;;7.43;2.58;;;;;;;3.73;63.11;100887.06;4947582;28;125415;-76
2024/01/16 09:02:29;;;;;;;12.90;2.50;;;;;;;3.74;63.09;100883.56;4940967;28;113418;-77
2024/01/16 09:04:58;;;;;;;5.65;2.50;;;;;;;3.77;63.12;100880.88;4949364;28;113089;-76
2024/01/16 09:07:27;;;;;;;8.85;2.60;;;;;;;3.77;62.84;100886.13;4950977;28;123832;-76
2024/01/16 09:09:54;;;;;;;8.05;2.38;;;;;;;3.77;62.88;100886.13;4934313;28;124285;-76
2024/01/16 09:12:22;;;;;;;6.53;2.63;;;;;;;3.78;62.81;100882.63;4945626;28;114129;-75
2024/01/16 09:14:49;;;;;;;9.25;3.13;;;;;;;3.79;62.83;100879.13;4920340;28;113603;-75
2024/01/16 09:17:16;;;;;;;8.48;2.10;;;;;;;3.81;63.04;100887.81;4942739;28;124283;-76
2024/01/16 09:19:44;;;;;;;6.45;2.30;;;;;;;3.82;62.98;100897.41;4949342;28;123768;-76
2024/01/16 09:22:11;;;;;;;6.53;2.53;;;;;;;3.84;63.21;100893.00;4933742;28;113387;-76
2024/01/16 09:24:39;;;;;;;9.27;2.63;;;;;;;3.87;62.75;100895.56;4935256;28;113293;-76
2024/01/16 09:27:06;;;;;;;6.47;2.25;;;;;;;3.87;62.90;100888.56;4949540;28;123189;-75
2024/01/16 09:29:34;;;;;;;10.52;2.55;;;;;;;3.89;62.67;100891.19;4941448;28;125221;-76
2024/01/16 09:32:01;;;;;;;9.55;2.40;;;;;;;3.90;62.94;100887.69;4934223;28;114084;-76
2024/01/16 09:34:29;;;;;;;6.40;2.28;;;;;;;3.89;62.44;100880.69;4938257;28;113158;-75
2024/01/16 09:36:59;;;;;;;5.43;2.42;;;;;;;3.92;62.49;100885.91;4947358;28;124033;-76
2024/01/16 09:39:26;;;;;;;6.55;2.47;;;;;;;3.93;62.84;100885.00;4950144;28;124326;-76
2024/01/16 09:41:54;;;;;;;9.55;2.80;;;;;;;3.94;62.46;100873.63;4920122;28;114441;-75
2024/01/16 09:44:22;;;;;;;10.35;2.35;;;;;;;3.97;62.46;100881.41;4942393;28;115529;-75
2024/01/16 09:46:51;;;;;;;9.60;2.58;;;;;;;4.00;62.37;100883.13;4940575;28;124198;-76
2024/01/16 09:49:19;;;;;;;6.60;2.38;;;;;;;4.01;62.64;100885.75;4917584;28;125516;-76
2024/01/16 09:51:46;;;;;;;4.65;2.50;;;;;;;4.01;62.41;100885.75;4936079;28;114842;-76
2024/01/16 09:54:15;;;;;;;8.15;2.40;;;;;;;4.03;62.20;100888.31;4940902;28;114464;-76
2024/01/16 09:56:45;;;;;;;7.00;2.53;;;;;;;4.04;62.44;100890.91;4949957;28;124529;-76
2024/01/16 09:59:18;;;;;;;5.65;2.42;;;;;;;4.06;62.08;100886.50;4945093;28;123845;-75
2024/01/16 10:01:48;;;;;;;5.35;2.45;;;;;;;4.08;62.36;100882.09;4935008;28;113172;-76
2024/01/16 10:04:15;;;;;;;6.68;2.67;;;;;;;4.09;62.42;100878.59;4952993;28;114425;-75
2024/01/16 10:06:46;;;;;;;7.47;2.53;;;;;;;4.09;61.88;100875.97;4944821;28;124467;-76
2024/01/16 10:09:15;;;;;;;7.82;2.55;;;;;;;4.09;61.88;100862.88;4936886;28;124279;-76
2024/01/16 10:11:44;;;;;;;8.48;2.80;;;;;;;4.09;62.25;100862.88;4953024;28;114386;-76
2024/01/16 10:14:12;;;;;;;7.45;2.40;;;;;;;4.09;62.11;100857.63;4952350;28;114041;-75
2024/01/16 10:16:59;;;;;;;8.52;2.67;;;;;;;4.12;61.82;100861.09;4951658;28;124044;-75
2024/01/16 10:19:28;;;;;;;9.25;2.70;;;;;;;4.15;61.86;100853.19;4943091;28;124096;-76
2024/01/16 10:22:19;;;;;;;7.88;2.80;;;;;;;4.17;62.00;100864.50;4936706;28;113738;-76
2024/01/16 10:25:06;;;;;;;7.80;2.85;;;;;;;4.20;61.93;100867.03;4937255;28;114349;-76
2024/01/16 10:27:34;;;;;;;7.90;2.40;;;;;;;4.23;62.06;100854.75;4929840;28;123842;-76
2024/01/16 10:30:04;;;;;;;6.18;2.28;;;;;;;4.28;62.00;100855.53;4941237;28;123912;-76
2024/01/16 10:32:35;;;;;;;9.23;2.72;;;;;;;4.34;62.27;100841.44;4943715;28;114328;-76
2024/01/16 10:35:06;;;;;;;6.97;2.65;;;;;;;4.39;61.86;100842.22;4938937;28;115034;-76
2024/01/16 10:37:42;;;;;;;8.30;2.70;;;;;;;4.43;62.04;100840.41;4949209;28;125019;-76
2024/01/16 10:40:14;;;;;;;7.38;2.50;;;;;;;4.45;61.82;100839.47;4933058;28;123852;-76
2024/01/16 10:42:46;;;;;;;10.43;2.88;;;;;;;4.48;61.66;100839.41;4915269;28;113499;-76
2024/01/16 10:45:22;;;;;;;6.05;2.85;;;;;;;4.53;62.03;100851.56;4951026;28;114816;-76
2024/01/16 10:48:03;;;;;;;6.00;2.75;;;;;;;4.56;61.90;100841.88;4931282;28;123898;-76
2024/01/16 10:50:38;;;;;;;8.50;2.70;;;;;;;4.62;62.10;100836.50;4946646;28;123896;-76
2024/01/16 10:53:07;;;;;;;7.87;2.67;;;;;;;4.66;61.69;100837.31;4945067;28;114755;-76
2024/01/16 10:56:01;;;;;;;6.50;2.50;;;;;;;4.71;61.88;100843.34;4950646;28;114188;-77
2024/01/16 10:58:31;;;;;;;8.35;2.70;;;;;;;4.75;61.76;100842.38;4944274;28;122473;-76
2024/01/16 11:01:05;;;;;;;5.00;2.55;;;;;;;4.80;61.61;100851.00;4942564;28;123888;-76
2024/01/16 11:03:45;;;;;;;11.07;3.55;;;;;;;4.86;61.79;100855.28;4923285;28;114094;-76
2024/01/16 11:06:15;;;;;;;7.97;3.10;;;;;;;4.91;61.70;100842.03;4948137;28;113920;-76
2024/01/16 11:09:51;;;;;;;8.30;3.53;;;;;;;4.91;61.39;100847.28;4942375;28;124398;-76
2024/01/16 11:12:52;;;;;;;10.43;2.80;;;;;;;4.90;61.54;100829.81;4934981;28;125941;-77
2024/01/16 11:15:41;;;;;;;10.07;3.30;;;;;;;4.87;61.54;100826.34;4957678;23;115460;-76
2024/01/16 11:18:10;;;;;;;8.95;3.13;;;;;;;4.88;61.20;100822.84;4937511;28;113277;-76
2024/01/16 11:20:42;;;;;;;8.75;3.10;;;;;;;4.87;61.31;100821.09;4934796;28;123984;-77
2024/01/16 11:23:30;;;;;;;8.85;2.90;;;;;;;4.88;61.05;100821.97;4947597;28;124015;-76
2024/01/16 11:25:59;;;;;;;6.38;2.80;;;;;;;4.92;61.18;100822.78;4959926;28;114872;-76
2024/01/16 11:28:31;;;;;;;7.82;3.00;;;;;;;4.96;61.32;100813.94;4939919;28;114970;-76
2024/01/16 11:31:27;;;;;;;6.72;2.80;;;;;;;4.99;61.03;100813.84;4940339;28;124415;-76
2024/01/16 11:33:55;;;;;;;7.90;3.10;;;;;;;5.04;61.32;100812.00;4949389;28;123402;-75
2024/01/16 11:36:42;;;;;;;5.55;2.70;;;;;;;5.07;61.41;100806.69;4923339;28;114490;-77